Time;durP1;ratioP1;P1;durP2;ratioP2;P2;SDS_P1;SDS_P2;PMS_P1;PMS_P2;Temp;Humidity;BMP_temperature;BMP_pressure;BME280_temperature;BME280_humidity;BME280_pressure;Samples;Min_cycle;Max_cycle;Signal;HPM_P1;HPM_P2
2024/01/09 00:00:53;;;;;;;8.03;4.27;;;;;;;-3.83;64.60;103296.22;5044463;28;20040;-63
2024/01/09 00:03:18;;;;;;;7.20;3.93;;;;;;;-3.84;64.54;103300.53;5045545;28;20029;-63
2024/01/09 00:05:43;;;;;;;5.90;4.00;;;;;;;-3.83;64.79;103296.22;5042105;28;20162;-63
2024/01/09 00:08:08;;;;;;;7.73;4.43;;;;;;;-3.86;65.04;103294.50;5041889;28;20612;-64
2024/01/09 00:10:34;;;;;;;7.47;3.90;;;;;;;-3.86;65.16;103296.25;5042234;28;20025;-64
2024/01/09 00:12:59;;;;;;;7.37;4.20;;;;;;;-3.87;64.83;103297.13;5041587;28;20036;-64
2024/01/09 00:15:24;;;;;;;7.00;4.20;;;;;;;-3.91;65.04;103293.72;5041441;28;20056;-64
2024/01/09 00:17:51;;;;;;;7.07;4.37;;;;;;;-3.91;65.14;103295.44;5038848;28;20104;-63
2024/01/09 00:20:16;;;;;;;6.67;4.10;;;;;;;-3.92;64.86;103291.13;5039844;28;20111;-64
2024/01/09 00:22:42;;;;;;;6.43;3.77;;;;;;;-3.94;65.15;103291.16;5041166;28;20104;-63
2024/01/09 00:25:08;;;;;;;7.67;4.50;;;;;;;-3.93;65.05;103289.41;5040062;28;20033;-63
2024/01/09 00:27:34;;;;;;;6.00;3.90;;;;;;;-3.96;65.10;103282.53;5034164;28;20404;-64
2024/01/09 00:30:00;;;;;;;7.73;4.10;;;;;;;-3.95;65.43;103279.06;5042913;28;20033;-63
2024/01/09 00:32:25;;;;;;;6.97;4.07;;;;;;;-3.94;65.24;103285.09;5041308;28;20482;-64
2024/01/09 00:34:50;;;;;;;6.73;4.10;;;;;;;-3.95;65.33;103296.34;5043258;28;20506;-63
2024/01/09 00:37:15;;;;;;;6.57;4.17;;;;;;;-3.99;65.41;103286.91;5041749;28;20035;-63
2024/01/09 00:39:41;;;;;;;5.13;4.00;;;;;;;-3.99;65.43;103286.91;5043464;28;20024;-63
2024/01/09 00:42:06;;;;;;;5.67;3.73;;;;;;;-4.01;65.39;103286.91;5038516;28;20032;-63
2024/01/09 00:44:32;;;;;;;6.03;3.93;;;;;;;-4.03;65.26;103283.47;5039960;28;20025;-63
2024/01/09 00:46:57;;;;;;;7.33;4.00;;;;;;;-4.01;65.21;103291.25;5044297;28;20604;-63
2024/01/09 00:49:22;;;;;;;7.20;4.30;;;;;;;-4.01;65.09;103293.84;5042401;28;20040;-63
2024/01/09 00:51:48;;;;;;;7.90;4.20;;;;;;;-4.03;65.25;103288.66;5041667;28;20040;-63
2024/01/09 00:54:13;;;;;;;6.70;4.03;;;;;;;-4.07;65.21;103287.81;5042204;28;20032;-63
2024/01/09 00:56:38;;;;;;;5.53;3.93;;;;;;;-4.08;65.36;103291.28;5041251;28;20025;-63
2024/01/09 00:59:03;;;;;;;6.50;3.77;;;;;;;-4.09;65.28;103281.78;5047222;28;20055;-63
2024/01/09 01:01:29;;;;;;;5.27;3.77;;;;;;;-4.10;65.34;103287.84;5040286;28;20502;-63
2024/01/09 01:03:54;;;;;;;5.70;3.73;;;;;;;-4.11;65.58;103280.09;5042952;28;20029;-63
2024/01/09 01:06:19;;;;;;;6.90;3.60;;;;;;;-4.14;65.52;103280.97;5037783;28;20139;-63
2024/01/09 01:08:45;;;;;;;7.57;4.00;;;;;;;-4.12;65.71;103289.59;5044112;28;20053;-63
2024/01/09 01:11:10;;;;;;;5.73;3.83;;;;;;;-4.13;65.71;103287.88;5037650;28;20024;-63
2024/01/09 01:13:35;;;;;;;6.40;4.00;;;;;;;-4.14;65.74;103293.94;5041777;28;20111;-63
2024/01/09 01:16:01;;;;;;;6.73;3.90;;;;;;;-4.17;65.64;103288.78;5041116;28;20418;-64
2024/01/09 01:18:26;;;;;;;6.23;3.83;;;;;;;-4.17;65.70;103288.78;5043829;28;20513;-63
2024/01/09 01:20:51;;;;;;;6.37;4.10;;;;;;;-4.18;65.76;103292.28;5038490;28;20070;-64
2024/01/09 01:23:16;;;;;;;6.63;4.30;;;;;;;-4.20;65.83;103293.16;5044335;28;20028;-63
2024/01/09 01:25:42;;;;;;;6.33;3.83;;;;;;;-4.22;65.88;103295.78;5040138;28;20051;-63
2024/01/09 01:28:07;;;;;;;6.90;4.07;;;;;;;-4.21;66.16;103296.63;5040105;28;20488;-63
2024/01/09 01:30:32;;;;;;;5.60;3.87;;;;;;;-4.24;66.10;103301.84;5040607;28;20082;-64
2024/01/09 01:32:57;;;;;;;5.63;3.47;;;;;;;-4.26;66.23;103299.28;5042304;28;20039;-64
2024/01/09 01:35:23;;;;;;;5.77;3.77;;;;;;;-4.26;66.41;103299.28;5040936;28;20537;-63
2024/01/09 01:37:48;;;;;;;6.40;4.10;;;;;;;-4.28;66.21;103297.56;5041057;28;20077;-63
2024/01/09 01:40:13;;;;;;;6.50;3.87;;;;;;;-4.29;66.25;103299.31;5041663;28;20063;-63
2024/01/09 01:42:39;;;;;;;7.13;3.80;;;;;;;-4.30;66.29;103296.72;5037938;28;20029;-63
2024/01/09 01:45:14;;;;;;;5.97;3.83;;;;;;;-4.29;66.32;103301.03;5039393;28;20056;-64
2024/01/09 01:47:39;;;;;;;6.73;4.27;;;;;;;-4.31;66.74;103303.66;5039645;28;20098;-63
2024/01/09 01:50:06;;;;;;;5.63;3.60;;;;;;;-4.31;66.87;103303.66;5052026;28;20483;-63
2024/01/09 01:52:31;;;;;;;7.07;3.57;;;;;;;-4.39;66.42;103276.91;5044855;28;20592;-63
2024/01/09 01:54:56;;;;;;;6.77;3.93;;;;;;;-4.36;66.34;103297.63;5040957;28;20033;-63
2024/01/09 01:57:22;;;;;;;5.77;4.00;;;;;;;-4.38;66.35;103300.22;5039865;28;20024;-63
2024/01/09 01:59:48;;;;;;;6.93;3.83;;;;;;;-4.39;66.54;103295.06;5042808;28;20757;-63
2024/01/09 02:02:14;;;;;;;5.73;3.90;;;;;;;-4.38;66.83;103305.41;5043363;28;20402;-63
2024/01/09 02:04:40;;;;;;;7.00;4.13;;;;;;;-4.39;66.89;103297.66;5041460;28;20164;-63
2024/01/09 02:07:06;;;;;;;7.07;4.30;;;;;;;-4.41;66.87;103296.81;5040762;28;20379;-63
2024/01/09 02:09:33;;;;;;;6.50;3.80;;;;;;;-4.43;66.99;103302.00;5039469;28;20025;-63
2024/01/09 02:11:58;;;;;;;6.90;4.20;;;;;;;-4.43;67.01;103303.75;5037584;28;20033;-63
2024/01/09 02:14:23;;;;;;;6.43;3.93;;;;;;;-4.44;67.13;103296.84;5034018;28;20062;-63
2024/01/09 02:16:49;;;;;;;6.53;3.63;;;;;;;-4.45;67.22;103297.72;5038151;28;20045;-63
2024/01/09 02:19:14;;;;;;;6.50;3.93;;;;;;;-4.44;67.26;103302.03;5038385;28;20542;-63
2024/01/09 02:21:41;;;;;;;6.70;3.83;;;;;;;-4.46;67.41;103296.00;5038638;28;20040;-63
2024/01/09 02:24:07;;;;;;;6.43;3.40;;;;;;;-4.47;67.43;103291.69;5038599;28;20032;-63
2024/01/09 02:26:39;;;;;;;5.57;3.90;;;;;;;-4.51;67.55;103287.41;5038021;28;20029;-63
2024/01/09 02:29:08;;;;;;;6.67;3.70;;;;;;;-4.50;68.00;103292.59;5041720;28;20070;-63
2024/01/09 02:31:34;;;;;;;;;;;;;;;-4.48;67.65;103279.59;5039367;28;20072;-63
2024/01/09 02:34:00;;;;;;;5.50;3.63;;;;;;;-4.50;67.75;103283.94;5038999;28;19928;-63
2024/01/09 02:36:26;;;;;;;7.27;4.00;;;;;;;-4.50;67.76;103283.94;5041662;28;20826;-63
2024/01/09 02:38:51;;;;;;;6.67;3.63;;;;;;;-4.53;67.77;103274.47;5040792;28;20033;-63
2024/01/09 02:41:16;;;;;;;7.43;4.00;;;;;;;-4.53;67.67;103276.19;5043654;28;20025;-63
2024/01/09 02:43:42;;;;;;;7.17;3.87;;;;;;;-4.54;67.81;103277.06;5036642;28;20017;-63
2024/01/09 02:46:07;;;;;;;6.47;4.07;;;;;;;-4.56;67.88;103274.50;5039977;28;20071;-63
2024/01/09 02:48:33;;;;;;;7.73;4.33;;;;;;;-4.60;68.11;103275.41;5041045;28;20037;-63
2024/01/09 02:50:59;;;;;;;6.37;3.93;;;;;;;-4.60;68.10;103275.41;5043285;28;20029;-63
2024/01/09 02:53:24;;;;;;;5.03;3.60;;;;;;;-4.61;68.12;103278.88;5042551;28;20413;-63
2024/01/09 02:55:49;;;;;;;5.93;3.83;;;;;;;-4.61;68.14;103276.28;5044283;28;20536;-63
2024/01/09 02:58:14;;;;;;;6.83;3.90;;;;;;;-4.61;68.11;103267.63;5045328;28;20029;-63
2024/01/09 03:00:40;;;;;;;7.17;4.27;;;;;;;-4.65;68.16;103269.38;5044898;28;20029;-63
2024/01/09 03:03:05;;;;;;;7.90;4.50;;;;;;;-4.66;68.00;103272.84;5045233;28;20036;-63
2024/01/09 03:05:31;;;;;;;6.60;3.87;;;;;;;-4.69;68.01;103262.50;5043301;28;20033;-63
2024/01/09 03:07:56;;;;;;;7.10;3.90;;;;;;;-4.68;68.00;103266.81;5045617;28;20044;-63
2024/01/09 03:10:21;;;;;;;6.07;4.00;;;;;;;-4.71;67.96;103264.25;5045533;28;20098;-63
2024/01/09 03:12:47;;;;;;;6.73;4.20;;;;;;;-4.71;68.21;103269.44;5046441;28;20044;-63
2024/01/09 03:15:12;;;;;;;8.00;3.90;;;;;;;-4.73;68.37;103260.81;5040428;28;20025;-63
2024/01/09 03:17:37;;;;;;;5.87;3.80;;;;;;;-4.73;68.37;103266.84;5044441;28;20060;-63
2024/01/09 03:20:03;;;;;;;7.30;4.10;;;;;;;-4.76;68.53;103260.84;5040307;28;20515;-63
2024/01/09 03:22:29;;;;;;;5.53;3.73;;;;;;;-4.77;68.68;103267.75;5044663;28;20033;-63
2024/01/09 03:24:54;;;;;;;7.03;3.73;;;;;;;-4.78;68.59;103263.44;5043783;28;20033;-63
2024/01/09 03:27:19;;;;;;;7.57;4.40;;;;;;;-4.79;68.67;103269.50;5041857;28;20055;-63
2024/01/09 03:29:45;;;;;;;6.43;3.87;;;;;;;-4.77;68.72;103264.31;5043932;28;20060;-63
2024/01/09 03:32:10;;;;;;;7.07;4.17;;;;;;;-4.78;68.91;103265.19;5042188;28;20555;-63
2024/01/09 03:34:35;;;;;;;6.60;3.97;;;;;;;-4.78;68.81;103267.75;5043496;28;20021;-63
2024/01/09 03:37:00;;;;;;;6.50;3.80;;;;;;;-4.78;68.70;103266.03;5039768;28;20060;-63
2024/01/09 03:39:26;;;;;;;7.33;4.43;;;;;;;-4.78;68.75;103265.19;5047793;28;20573;-63
2024/01/09 03:41:52;;;;;;;6.80;3.93;;;;;;;-4.79;68.80;103269.50;5033855;28;20529;-63
2024/01/09 03:44:17;;;;;;;6.37;4.07;;;;;;;-4.80;68.82;103259.16;5039376;28;20033;-63
2024/01/09 03:46:43;;;;;;;7.00;4.00;;;;;;;-4.82;68.59;103268.66;5041937;28;20040;-63
2024/01/09 03:49:09;;;;;;;6.73;3.90;;;;;;;-4.83;68.74;103264.34;5039722;28;20090;-63
2024/01/09 03:51:34;;;;;;;6.27;3.63;;;;;;;-4.84;68.68;103262.63;5038541;28;21683;-63
2024/01/09 03:53:59;;;;;;;6.50;4.07;;;;;;;-4.84;68.75;103257.47;5040675;28;20038;-63
2024/01/09 03:56:25;;;;;;;6.83;3.70;;;;;;;-4.86;68.75;103264.38;5041877;28;20025;-63
2024/01/09 03:58:52;;;;;;;6.77;3.97;;;;;;;-4.87;68.84;103255.75;5042791;28;20017;-63
2024/01/09 04:01:17;;;;;;;6.57;4.17;;;;;;;-4.89;69.03;103252.31;5042827;28;20043;-63
2024/01/09 04:03:42;;;;;;;8.13;4.27;;;;;;;-4.89;69.02;103254.06;5034601;28;20573;-63
2024/01/09 04:06:07;;;;;;;7.73;3.80;;;;;;;-4.91;69.17;103250.59;5042177;28;20032;-63
2024/01/09 04:08:33;;;;;;;5.80;4.10;;;;;;;-4.90;69.27;103255.78;5040199;28;20040;-63
2024/01/09 04:10:58;;;;;;;8.00;3.90;;;;;;;-4.93;69.46;103244.56;5041918;28;20056;-63
2024/01/09 04:13:23;;;;;;;8.60;4.27;;;;;;;-4.90;69.76;103250.59;5038955;28;20029;-63
2024/01/09 04:15:49;;;;;;;8.70;4.13;;;;;;;-4.92;69.57;103249.72;5038893;28;20506;-63
2024/01/09 04:18:14;;;;;;;8.27;4.17;;;;;;;-4.93;69.59;103247.16;5038956;28;20033;-63
2024/01/09 04:20:41;;;;;;;7.00;3.83;;;;;;;-4.97;69.43;103248.91;5041909;28;20032;-63
2024/01/09 04:23:07;;;;;;;6.27;4.13;;;;;;;-4.95;69.27;103261.84;5040247;28;20027;-63
2024/01/09 04:25:32;;;;;;;6.73;4.00;;;;;;;-4.96;69.36;103258.41;5038820;28;20033;-63
2024/01/09 04:27:57;;;;;;;8.10;4.57;;;;;;;-4.99;69.47;103259.28;5040757;28;20044;-63
2024/01/09 04:30:22;;;;;;;7.97;3.97;;;;;;;-4.98;69.59;103249.78;5039561;28;20456;-63
2024/01/09 04:32:48;;;;;;;9.73;4.40;;;;;;;-4.99;69.63;103261.88;5039853;28;20108;-63
2024/01/09 04:35:13;;;;;;;8.27;4.27;;;;;;;-5.00;69.72;103265.34;5039658;28;20027;-63
2024/01/09 04:37:38;;;;;;;6.33;4.00;;;;;;;-5.01;69.59;103263.63;5034040;28;20025;-63
2024/01/09 04:40:05;;;;;;;6.73;3.90;;;;;;;-5.02;69.41;103271.41;5040164;28;20033;-63
2024/01/09 04:42:31;;;;;;;8.87;4.20;;;;;;;-5.03;69.59;103251.53;5039353;28;20595;-63
2024/01/09 04:44:56;;;;;;;6.50;3.83;;;;;;;-5.04;69.60;103262.78;5037684;28;20039;-62
2024/01/09 04:47:21;;;;;;;7.37;3.90;;;;;;;-5.05;69.77;103263.66;5040713;28;20021;-63
2024/01/09 04:49:47;;;;;;;8.43;4.50;;;;;;;-5.05;69.86;103266.25;5039727;28;20032;-63
2024/01/09 04:52:12;;;;;;;8.70;4.50;;;;;;;-5.05;69.83;103267.09;5041328;28;20024;-63
2024/01/09 04:54:37;;;;;;;8.17;4.13;;;;;;;-5.06;69.80;103262.78;5044179;28;20024;-63
2024/01/09 04:57:03;;;;;;;5.80;3.87;;;;;;;-5.08;69.71;103254.19;5040292;28;20102;-63
2024/01/09 04:59:28;;;;;;;8.40;4.43;;;;;;;-5.09;69.85;103254.19;5044659;28;20025;-63
2024/01/09 05:01:54;;;;;;;7.70;4.50;;;;;;;-5.10;70.12;103260.25;5041295;28;20025;-63
2024/01/09 05:04:19;;;;;;;6.47;4.40;;;;;;;-5.09;70.00;103260.22;5041801;28;20394;-62
2024/01/09 05:06:44;;;;;;;7.63;4.03;;;;;;;-5.10;70.04;103258.50;5040967;28;20052;-63
2024/01/09 05:09:11;;;;;;;9.13;4.40;;;;;;;-5.10;69.94;103253.31;5042281;28;20025;-63
2024/01/09 05:11:36;;;;;;;9.90;4.20;;;;;;;-5.09;70.09;103252.47;5038944;28;20121;-63
2024/01/09 05:14:01;;;;;;;6.57;4.17;;;;;;;-5.09;70.25;103262.81;5044021;28;20108;-63
2024/01/09 05:16:27;;;;;;;7.03;4.17;;;;;;;-5.11;70.04;103250.75;5038997;28;20025;-63
2024/01/09 05:18:53;;;;;;;8.67;4.17;;;;;;;-5.12;70.06;103257.66;5042908;28;20060;-63
2024/01/09 05:21:19;;;;;;;7.10;4.20;;;;;;;-5.12;70.12;103264.56;5041152;28;20031;-63
2024/01/09 05:23:44;;;;;;;7.87;4.53;;;;;;;-5.13;70.06;103257.69;5040622;28;20402;-63
2024/01/09 05:26:09;;;;;;;6.13;4.43;;;;;;;-5.15;70.45;103257.69;5040649;28;20879;-62
2024/01/09 05:28:35;;;;;;;9.00;4.30;;;;;;;-5.14;70.43;103267.19;5042409;28;20033;-63
2024/01/09 05:31:02;;;;;;;6.83;4.40;;;;;;;-5.16;70.36;103262.88;5039415;28;20401;-62
2024/01/09 05:33:27;;;;;;;7.90;4.57;;;;;;;-5.15;70.40;103256.81;5043381;28;20034;-63
2024/01/09 05:35:54;;;;;;;7.87;4.23;;;;;;;-5.16;70.27;103252.53;5038623;28;20060;-63
2024/01/09 05:38:19;;;;;;;7.30;4.40;;;;;;;-5.17;70.56;103254.25;5041877;28;20032;-63
2024/01/09 05:40:45;;;;;;;7.73;4.37;;;;;;;-5.18;70.63;103251.69;5040564;28;20040;-63
2024/01/09 05:43:11;;;;;;;7.03;4.37;;;;;;;-5.19;70.69;103257.72;5041935;28;20029;-63
2024/01/09 05:45:36;;;;;;;8.27;4.73;;;;;;;-5.18;70.63;103255.13;5036172;28;20028;-63
2024/01/09 05:48:01;;;;;;;6.90;4.40;;;;;;;-5.20;70.72;103254.28;5034590;28;20029;-63
2024/01/09 05:50:27;;;;;;;6.87;4.40;;;;;;;-5.22;70.53;103255.97;5035582;28;20032;-63
2024/01/09 05:52:52;;;;;;;9.10;4.50;;;;;;;-5.22;70.74;103255.13;5040654;28;20538;-62
2024/01/09 05:55:17;;;;;;;7.97;4.73;;;;;;;-5.22;70.68;103265.50;5043399;28;20037;-63
2024/01/09 05:57:43;;;;;;;7.83;4.40;;;;;;;-5.23;70.78;103264.63;5042118;28;20025;-63
2024/01/09 06:00:09;;;;;;;9.33;5.10;;;;;;;-5.22;70.76;103261.16;5040467;28;20410;-63
2024/01/09 06:02:34;;;;;;;8.60;4.60;;;;;;;-5.23;70.75;103261.19;5042420;28;20033;-63
2024/01/09 06:04:59;;;;;;;7.77;5.00;;;;;;;-5.28;70.76;103244.81;5038743;28;20164;-63
2024/01/09 06:07:25;;;;;;;9.57;4.70;;;;;;;-5.30;70.77;103258.63;5043040;28;20562;-63
2024/01/09 06:09:50;;;;;;;8.17;4.53;;;;;;;-5.27;70.82;103257.75;5038283;28;20179;-63
2024/01/09 06:12:15;;;;;;;9.50;4.77;;;;;;;-5.27;70.77;103256.88;5038319;28;20746;-63
2024/01/09 06:14:41;;;;;;;7.43;4.70;;;;;;;-5.27;70.84;103256.88;5039586;28;20036;-63
2024/01/09 06:17:06;;;;;;;8.50;4.90;;;;;;;-5.29;70.80;103254.31;5036413;28;20043;-63
2024/01/09 06:19:31;;;;;;;9.73;5.00;;;;;;;-5.27;71.05;103264.66;5030627;28;20032;-63
2024/01/09 06:21:57;;;;;;;9.90;4.60;;;;;;;-5.28;71.25;103258.63;5038941;28;20037;-62
2024/01/09 06:24:22;;;;;;;8.53;4.77;;;;;;;-5.29;70.97;103262.09;5038417;28;20155;-63
2024/01/09 06:26:48;;;;;;;8.97;4.50;;;;;;;-5.30;70.84;103260.38;5043066;28;20758;-63
2024/01/09 06:29:13;;;;;;;9.27;5.57;;;;;;;-5.34;70.97;103258.66;5040409;28;20538;-63
2024/01/09 06:31:40;;;;;;;11.40;5.03;;;;;;;-5.34;71.16;103267.28;5044026;28;20024;-62
2024/01/09 06:34:06;;;;;;;7.97;4.67;;;;;;;-5.32;71.15;103270.72;5040622;28;20734;-63
2024/01/09 06:36:31;;;;;;;8.73;4.90;;;;;;;-5.35;71.23;103273.34;5042417;28;20071;-63
2024/01/09 06:38:57;;;;;;;8.77;5.30;;;;;;;-5.32;71.39;103268.16;5040099;28;20040;-63
2024/01/09 06:41:22;;;;;;;12.63;5.50;;;;;;;-5.32;71.25;103286.28;5041126;28;20029;-63
2024/01/09 06:43:47;;;;;;;9.07;5.57;;;;;;;-5.32;71.29;103282.81;5041746;28;20029;-62
2024/01/09 06:46:13;;;;;;;11.10;5.80;;;;;;;-5.32;71.47;103288.84;5037234;28;20326;-63
2024/01/09 06:48:38;;;;;;;8.70;5.03;;;;;;;-5.34;71.63;103292.31;5040886;28;20036;-63
2024/01/09 06:51:03;;;;;;;9.07;5.30;;;;;;;-5.35;71.75;103288.88;5039974;28;20808;-63
2024/01/09 06:53:29;;;;;;;8.70;5.43;;;;;;;-5.36;71.88;103287.16;5045133;28;20060;-63
2024/01/09 06:55:54;;;;;;;9.47;5.37;;;;;;;-5.36;72.03;103288.88;5040606;28;20044;-63
2024/01/09 06:58:19;;;;;;;10.03;5.60;;;;;;;-5.35;71.93;103293.19;5043874;28;20037;-63
2024/01/09 07:00:45;;;;;;;8.93;5.40;;;;;;;-5.35;71.99;103285.44;5044157;28;20064;-63
2024/01/09 07:03:10;;;;;;;8.17;5.33;;;;;;;-5.39;71.91;103291.50;5034572;28;20442;-63
2024/01/09 07:05:36;;;;;;;7.77;5.33;;;;;;;-5.39;72.23;103294.09;5035185;28;20409;-62
2024/01/09 07:08:03;;;;;;;9.83;5.73;;;;;;;-5.40;72.24;103290.63;5041924;28;20635;-63
2024/01/09 07:10:28;;;;;;;9.40;5.77;;;;;;;-5.38;72.34;103286.31;5041144;28;20055;-63
2024/01/09 07:12:53;;;;;;;9.57;5.30;;;;;;;-5.38;72.52;103294.06;5041049;28;20134;-62
2024/01/09 07:15:19;;;;;;;11.67;5.73;;;;;;;-5.41;72.44;103293.25;5051135;28;20035;-62
2024/01/09 07:17:45;;;;;;;9.57;5.60;;;;;;;-5.38;72.34;103290.63;5034334;28;20108;-62
2024/01/09 07:20:11;;;;;;;8.40;5.77;;;;;;;-5.41;72.81;103296.69;5033720;28;20037;-63
2024/01/09 07:22:36;;;;;;;10.47;6.10;;;;;;;-5.44;72.56;103286.34;5039910;28;20040;-63
2024/01/09 07:25:03;;;;;;;14.33;8.27;;;;;;;-5.43;72.58;103295.84;5042115;28;20033;-63
2024/01/09 07:27:28;;;;;;;9.53;5.57;;;;;;;-5.46;72.74;103295.00;5039531;28;20041;-63
2024/01/09 07:29:53;;;;;;;8.87;5.40;;;;;;;-5.44;72.92;103301.03;5042091;28;20596;-62
2024/01/09 07:32:20;;;;;;;10.57;5.63;;;;;;;-5.46;72.74;103306.22;5039070;28;20028;-63
2024/01/09 07:34:46;;;;;;;10.67;6.17;;;;;;;-5.46;72.89;103307.94;5035915;28;20036;-62
2024/01/09 07:37:11;;;;;;;9.90;5.93;;;;;;;-5.47;73.10;103312.25;5033484;28;20037;-62
2024/01/09 07:39:36;;;;;;;13.23;7.10;;;;;;;-5.47;72.78;103311.41;5035821;28;20122;-62
2024/01/09 07:42:02;;;;;;;10.87;5.90;;;;;;;-5.51;72.76;103309.66;5040901;28;20047;-63
2024/01/09 07:44:27;;;;;;;9.70;5.80;;;;;;;-5.49;72.95;103324.34;5041217;28;20035;-62
2024/01/09 07:46:52;;;;;;;10.03;6.33;;;;;;;-5.47;72.96;103321.75;5037580;28;20068;-63
2024/01/09 07:49:18;;;;;;;10.07;6.10;;;;;;;-5.48;73.12;103325.22;5036210;28;20051;-62
2024/01/09 07:51:44;;;;;;;9.40;5.70;;;;;;;-5.48;73.04;103331.25;5038499;28;20656;-62
2024/01/09 07:54:09;;;;;;;9.93;6.10;;;;;;;-5.51;72.97;103323.47;5038309;28;20029;-62
2024/01/09 07:56:35;;;;;;;11.03;6.50;;;;;;;-5.52;73.01;103324.34;5041380;28;20063;-63
2024/01/09 07:59:00;;;;;;;11.00;6.30;;;;;;;-5.51;73.01;103328.66;5038840;28;20131;-62
2024/01/09 08:01:27;;;;;;;10.23;5.97;;;;;;;-5.50;72.99;103334.69;5040690;28;20029;-62
2024/01/09 08:03:52;;;;;;;10.57;6.47;;;;;;;-5.50;73.01;103332.09;5042654;28;20024;-63
2024/01/09 08:06:18;;;;;;;12.37;6.70;;;;;;;-5.50;72.99;103335.53;5042082;28;20666;-62
2024/01/09 08:08:43;;;;;;;10.40;6.37;;;;;;;-5.49;73.18;103337.28;5036976;28;20449;-63
2024/01/09 08:11:09;;;;;;;10.90;6.43;;;;;;;-5.47;73.15;103337.28;5041064;28;20037;-62
2024/01/09 08:13:35;;;;;;;10.90;6.20;;;;;;;-5.46;73.15;103339.00;5036034;28;20104;-63
2024/01/09 08:16:01;;;;;;;12.17;6.70;;;;;;;-5.45;73.15;103340.72;5038910;28;20040;-63
2024/01/09 08:18:27;;;;;;;10.27;6.73;;;;;;;-5.45;73.30;103336.41;5032572;28;20402;-62
2024/01/09 08:20:52;;;;;;;10.63;6.20;;;;;;;-5.43;73.14;103344.16;5039840;28;20508;-63
2024/01/09 08:23:17;;;;;;;12.07;6.50;;;;;;;-5.42;72.98;103340.72;5042333;28;20031;-63
2024/01/09 08:25:43;;;;;;;11.10;6.10;;;;;;;-5.38;72.99;103343.28;5039826;28;20045;-63
2024/01/09 08:28:09;;;;;;;10.53;7.07;;;;;;;-5.34;72.92;103344.97;5038094;28;20439;-63
2024/01/09 08:30:35;;;;;;;13.67;7.03;;;;;;;-5.23;72.91;103346.66;5038414;28;20033;-62
2024/01/09 08:33:00;;;;;;;10.47;6.40;;;;;;;-5.18;72.88;103340.59;5037594;28;20044;-62
2024/01/09 08:35:25;;;;;;;11.67;6.20;;;;;;;-5.11;72.59;103350.03;5036868;28;20787;-62
2024/01/09 08:37:50;;;;;;;11.60;7.00;;;;;;;-5.02;72.40;103349.13;5039394;28;20041;-62
2024/01/09 08:40:16;;;;;;;10.87;6.07;;;;;;;-4.97;72.31;103349.94;5036818;28;20086;-62
2024/01/09 08:42:41;;;;;;;10.93;6.53;;;;;;;-4.88;72.28;103347.31;5038503;28;20033;-62
2024/01/09 08:45:08;;;;;;;15.77;6.87;;;;;;;-4.83;71.96;103350.75;5033927;28;20526;-62
2024/01/09 08:47:34;;;;;;;12.93;6.07;;;;;;;-4.77;71.72;103353.28;5035047;28;20032;-62
2024/01/09 08:49:59;;;;;;;12.10;6.57;;;;;;;-4.74;71.66;103355.84;5031208;28;20457;-62
2024/01/09 08:52:25;;;;;;;11.80;7.10;;;;;;;-4.70;71.55;103347.19;5036151;28;20033;-62
2024/01/09 08:54:52;;;;;;;9.13;5.97;;;;;;;-4.61;71.35;103348.00;5033977;28;20041;-63
2024/01/09 08:57:21;;;;;;;11.37;7.00;;;;;;;-4.51;71.14;103352.22;5035319;28;20072;-63
2024/01/09 08:59:48;;;;;;;13.55;6.80;;;;;;;-4.39;71.01;103349.53;5036440;28;20067;-62
2024/01/09 09:02:13;;;;;;;11.53;6.50;;;;;;;-4.24;70.83;103352.00;5034520;28;20029;-63
2024/01/09 09:04:38;;;;;;;11.93;6.80;;;;;;;-4.10;70.79;103350.13;5031334;28;20112;-63
2024/01/09 09:07:04;;;;;;;11.63;6.60;;;;;;;-3.97;70.36;103363.00;5034753;28;20037;-63
2024/01/09 09:09:30;;;;;;;24.10;11.03;;;;;;;-3.86;69.77;103358.53;5036186;28;20035;-63
2024/01/09 09:11:58;;;;;;;13.67;7.17;;;;;;;-3.76;69.29;103365.34;5038776;28;20558;-63
2024/01/09 09:14:23;;;;;;;12.33;7.00;;;;;;;-3.66;68.85;103358.34;5037427;28;20033;-63
2024/01/09 09:16:49;;;;;;;13.27;8.17;;;;;;;-3.57;68.38;103366.00;5032994;28;20044;-63
2024/01/09 09:19:14;;;;;;;12.67;6.50;;;;;;;-3.52;67.96;103366.81;5035923;28;20127;-63
2024/01/09 09:21:39;;;;;;;11.50;7.47;;;;;;;-3.44;67.90;103365.00;5036730;28;20025;-64
2024/01/09 09:24:05;;;;;;;10.40;6.60;;;;;;;-3.36;67.63;103370.97;5037940;28;20025;-63
2024/01/09 09:26:32;;;;;;;11.70;6.73;;;;;;;-3.29;67.51;103366.53;5037228;28;20032;-64
2024/01/09 09:28:58;;;;;;;10.60;6.43;;;;;;;-3.26;67.18;103376.88;5041836;28;20089;-64
2024/01/09 09:31:23;;;;;;;12.37;6.60;;;;;;;-3.26;66.71;103371.69;5038487;28;20040;-64
2024/01/09 09:33:48;;;;;;;9.53;5.93;;;;;;;-3.28;66.32;103360.47;5035282;28;20107;-64
2024/01/09 09:36:14;;;;;;;10.17;6.33;;;;;;;-3.32;66.11;103356.19;5035509;28;20190;-65
2024/01/09 09:38:40;;;;;;;14.33;7.07;;;;;;;-3.32;65.65;103366.56;5037835;28;20221;-64
2024/01/09 09:41:06;;;;;;;12.20;7.23;;;;;;;-3.35;65.48;103354.50;5036862;28;20150;-64
2024/01/09 09:43:34;;;;;;;11.13;6.30;;;;;;;-3.35;65.47;103356.22;5036747;28;20029;-64
2024/01/09 09:46:01;;;;;;;16.37;9.07;;;;;;;-3.35;65.26;103364.88;5035957;28;20035;-64
2024/01/09 09:48:28;;;;;;;18.40;9.70;;;;;;;-3.34;65.12;103365.75;5037514;28;20036;-64
2024/01/09 09:50:55;;;;;;;14.60;8.17;;;;;;;-3.28;65.34;103366.50;5036049;28;20025;-64
2024/01/09 09:53:22;;;;;;;16.67;8.00;;;;;;;-3.25;65.18;103358.69;5037053;28;20037;-64
2024/01/09 09:55:47;;;;;;;12.03;7.27;;;;;;;-3.23;65.01;103363.84;5040157;28;20089;-64
2024/01/09 09:58:13;;;;;;;10.40;6.23;;;;;;;-3.23;64.42;103361.25;5039529;28;20033;-64
2024/01/09 10:00:39;;;;;;;11.50;6.63;;;;;;;-3.20;64.46;103361.22;5038889;28;20032;-64
2024/01/09 10:03:08;;;;;;;11.87;6.87;;;;;;;-3.19;64.27;103360.31;5040971;28;20033;-64
2024/01/09 10:05:38;;;;;;;11.38;6.80;;;;;;;-3.16;64.08;103355.13;5041449;28;20033;-64
2024/01/09 10:08:07;;;;;;;11.20;6.83;;;;;;;-3.16;63.92;103347.31;5043104;28;20037;-65
2024/01/09 10:10:32;;;;;;;11.52;7.20;;;;;;;-3.18;63.81;103346.44;5043644;28;20745;-64
2024/01/09 10:12:58;;;;;;;13.43;7.70;;;;;;;-3.21;63.35;103344.75;5043165;28;20047;-64
2024/01/09 10:15:23;;;;;;;10.67;6.47;;;;;;;-3.23;63.41;103335.28;5041015;28;20017;-64
2024/01/09 10:17:49;;;;;;;12.70;7.10;;;;;;;-3.23;63.29;103324.88;5041703;28;20625;-64
2024/01/09 10:20:15;;;;;;;11.90;6.93;;;;;;;-3.23;63.18;103327.47;5030051;28;20037;-64
2024/01/09 10:22:41;;;;;;;10.80;6.63;;;;;;;-3.22;63.01;103316.19;5039705;28;20044;-64
2024/01/09 10:25:08;;;;;;;11.17;6.67;;;;;;;-3.24;63.06;103317.97;5042172;28;20025;-64
2024/01/09 10:27:36;;;;;;;12.40;6.63;;;;;;;-3.23;62.88;103327.47;5035948;28;20036;-65
2024/01/09 10:30:05;;;;;;;11.90;6.67;;;;;;;-3.24;62.83;103321.41;5044021;28;20068;-65
2024/01/09 10:32:35;;;;;;;11.88;6.80;;;;;;;-3.23;62.80;103319.69;5037511;28;21323;-64
2024/01/09 10:35:03;;;;;;;12.97;7.23;;;;;;;-3.22;62.74;103316.19;5042644;28;20055;-64
2024/01/09 10:37:29;;;;;;;12.07;7.27;;;;;;;-3.19;62.94;103317.00;5037062;28;20029;-65
2024/01/09 10:39:54;;;;;;;11.20;6.97;;;;;;;-3.12;63.00;103310.88;5040508;28;20025;-64
2024/01/09 10:42:20;;;;;;;11.77;7.17;;;;;;;-3.08;62.63;103311.69;5040654;28;20064;-64
2024/01/09 10:44:47;;;;;;;12.50;6.63;;;;;;;-3.04;62.54;103315.94;5040704;28;20112;-64
2024/01/09 10:47:17;;;;;;;15.53;7.40;;;;;;;-3.01;62.58;103309.84;5039798;28;20033;-64
2024/01/09 10:49:43;;;;;;;13.20;7.23;;;;;;;-2.99;62.19;103310.69;5033861;28;20033;-64
2024/01/09 10:52:14;;;;;;;12.57;6.50;;;;;;;-2.95;61.88;103301.94;5039109;28;20029;-65
2024/01/09 10:54:44;;;;;;;10.27;6.03;;;;;;;-2.88;61.90;103299.25;5040538;28;20064;-64
2024/01/09 10:57:12;;;;;;;13.83;7.77;;;;;;;-2.83;61.86;103291.38;5041366;28;21387;-64
2024/01/09 10:59:42;;;;;;;11.40;6.30;;;;;;;-2.81;61.24;103293.06;5043974;28;20127;-64
2024/01/09 11:02:21;;;;;;;10.43;6.03;;;;;;;-2.78;61.11;103286.09;5042416;28;20122;-64
2024/01/09 11:04:47;;;;;;;9.35;5.95;;;;;;;-2.72;61.06;103291.19;5037646;28;20032;-65
2024/01/09 11:07:14;;;;;;;13.90;5.80;;;;;;;-2.67;60.92;103271.16;5037005;28;20025;-65
2024/01/09 11:09:42;;;;;;;10.23;6.20;;;;;;;-2.63;60.70;103278.03;5044307;28;20025;-64
2024/01/09 11:12:11;;;;;;;11.07;5.77;;;;;;;-2.60;60.38;103273.66;5038374;28;20033;-65
2024/01/09 11:14:39;;;;;;;10.02;5.80;;;;;;;-2.57;60.21;103276.22;5037890;28;21337;-65